Time;durP1;ratioP1;P1;durP2;ratioP2;P2;SDS_P1;SDS_P2;PMS_P1;PMS_P2;Temp;Humidity;BMP_temperature;BMP_pressure;BME280_temperature;BME280_humidity;BME280_pressure;Samples;Min_cycle;Max_cycle;Signal;HPM_P1;HPM_P2
2022/04/25 00:01:45;;;;;;;6.82;2.80;;;;;;;19.98;41.71;101109.16;5047676;28;20088;-42
2022/04/25 00:04:11;;;;;;;3.58;2.45;;;;;;;19.97;42.30;101115.53;5049120;28;20048;-40
2022/04/25 00:06:38;;;;;;;5.00;2.72;;;;;;;19.95;41.83;101110.31;5050214;28;20045;-41
2022/04/25 00:09:04;;;;;;;6.65;2.78;;;;;;;19.95;42.31;101110.31;5050625;28;20127;-41
2022/04/25 00:11:31;;;;;;;4.80;2.58;;;;;;;19.94;42.18;101121.25;5050772;28;20055;-41
2022/04/25 00:13:57;;;;;;;4.07;2.40;;;;;;;19.93;41.91;101108.78;5049791;28;20045;-42
2022/04/25 00:16:24;;;;;;;4.88;2.17;;;;;;;19.92;42.21;101107.09;5047713;28;20176;-44
2022/04/25 00:18:50;;;;;;;4.18;2.40;;;;;;;19.90;42.19;101109.09;5047801;28;20152;-41
2022/04/25 00:21:17;;;;;;;4.03;2.50;;;;;;;19.89;41.87;101102.88;5050894;28;20048;-41
2022/04/25 00:23:44;;;;;;;4.88;2.72;;;;;;;19.89;41.86;101113.63;5052360;28;20486;-42
2022/04/25 00:26:10;;;;;;;4.38;2.63;;;;;;;19.88;42.17;101105.72;5050869;28;20389;-42
2022/04/25 00:28:37;;;;;;;4.18;2.63;;;;;;;19.86;42.35;101092.44;5048552;28;20417;-44
2022/04/25 00:31:03;;;;;;;5.32;2.42;;;;;;;19.85;42.43;101104.19;5048012;28;20076;-42
2022/04/25 00:33:30;;;;;;;3.88;2.72;;;;;;;19.85;41.96;101106.03;5047785;28;20512;-41
2022/04/25 00:35:57;;;;;;;3.45;2.30;;;;;;;19.83;42.06;101106.22;5048385;28;20095;-41
2022/04/25 00:38:23;;;;;;;4.10;2.60;;;;;;;19.84;41.93;101099.81;5050312;28;20124;-41
2022/04/25 00:40:50;;;;;;;3.90;2.78;;;;;;;19.84;41.75;101115.13;5051955;28;20048;-41
2022/04/25 00:43:16;;;;;;;3.75;2.45;;;;;;;19.82;42.40;101114.41;5050775;28;20059;-42
2022/04/25 00:45:43;;;;;;;4.90;2.30;;;;;;;19.83;42.68;101108.06;5049611;28;20041;-41
2022/04/25 00:48:09;;;;;;;4.50;2.45;;;;;;;19.80;42.56;101103.81;5047467;28;20190;-42
2022/04/25 00:50:38;;;;;;;4.22;2.60;;;;;;;19.79;42.29;101102.16;5045816;28;20424;-41
2022/04/25 00:53:08;;;;;;;4.28;2.30;;;;;;;19.78;42.27;101105.84;5050531;28;20045;-41
2022/04/25 00:55:36;;;;;;;3.63;2.53;;;;;;;19.76;42.28;101102.47;5050798;28;20057;-42
2022/04/25 00:58:03;;;;;;;5.70;2.60;;;;;;;19.78;42.76;101110.34;5048168;28;20164;-42
2022/04/25 01:00:31;;;;;;;3.20;2.38;;;;;;;19.76;42.65;101102.47;5047379;28;20103;-43
2022/04/25 01:02:58;;;;;;;4.10;2.78;;;;;;;19.76;42.90;101107.00;5045580;28;20045;-43
2022/04/25 01:05:25;;;;;;;3.83;2.20;;;;;;;19.74;42.80;101104.47;5048521;28;20041;-41
2022/04/25 01:07:51;;;;;;;4.93;2.45;;;;;;;19.73;42.89;101094.69;5046793;28;20051;-41
2022/04/25 01:10:18;;;;;;;4.22;2.47;;;;;;;19.73;42.32;101095.53;5051331;28;20148;-41
2022/04/25 01:12:44;;;;;;;4.97;2.40;;;;;;;19.71;42.69;101100.25;5050643;28;20340;-42
2022/04/25 01:15:12;;;;;;;4.18;2.50;;;;;;;19.71;42.96;101096.72;5050022;28;20040;-42
2022/04/25 01:17:40;;;;;;;3.53;2.30;;;;;;;19.70;42.52;101103.94;5049353;28;20410;-41
2022/04/25 01:20:08;;;;;;;6.10;2.35;;;;;;;19.70;42.95;101100.41;5048890;28;20416;-41
2022/04/25 01:22:46;;;;;;;4.05;2.33;;;;;;;19.69;42.51;101091.47;5049531;28;20048;-41
2022/04/25 01:28:01;;;;;;;2.45;2.05;;;;;;;19.67;42.94;101090.81;5047710;28;20042;-41
2022/04/25 01:30:31;;;;;;;4.57;2.85;;;;;;;19.67;42.94;101096.19;5046193;28;20108;-44
2022/04/25 01:32:59;;;;;;;4.57;2.28;;;;;;;19.67;42.80;101101.56;5047539;28;20048;-41
2022/04/25 01:35:25;;;;;;;3.88;2.40;;;;;;;19.66;42.55;101101.75;5050108;28;20049;-41
2022/04/25 01:37:52;;;;;;;4.20;2.20;;;;;;;19.66;42.67;101101.75;5052001;28;20045;-40
2022/04/25 01:40:19;;;;;;;5.28;2.70;;;;;;;19.63;42.69;101100.19;5051614;28;20045;-41
2022/04/25 01:42:45;;;;;;;2.85;2.10;;;;;;;19.62;43.24;101098.53;5052560;28;20312;-40
2022/04/25 01:45:12;;;;;;;2.92;2.28;;;;;;;19.62;43.18;101098.53;5048069;28;20043;-41
2022/04/25 01:47:40;;;;;;;3.35;2.15;;;;;;;19.62;42.81;101100.38;5052768;28;20424;-44
2022/04/25 01:50:07;;;;;;;3.45;2.38;;;;;;;19.61;43.36;101098.63;5046466;28;20041;-41
2022/04/25 01:52:34;;;;;;;3.95;2.53;;;;;;;19.59;42.88;101088.03;5044315;28;20046;-41
2022/04/25 01:55:02;;;;;;;4.25;2.03;;;;;;;19.57;43.41;101086.50;5050173;28;20040;-40
2022/04/25 01:57:29;;;;;;;3.70;1.90;;;;;;;19.57;43.12;101092.72;5046286;28;20051;-40
2022/04/25 01:59:55;;;;;;;4.60;2.15;;;;;;;19.55;43.24;101088.53;5047413;28;20207;-41
2022/04/25 02:02:22;;;;;;;3.67;2.35;;;;;;;19.56;43.34;101084.81;5046319;28;20312;-40
2022/04/25 02:04:50;;;;;;;4.65;2.40;;;;;;;19.55;42.68;101083.97;5047479;28;20049;-41
2022/04/25 02:07:16;;;;;;;4.90;2.58;;;;;;;19.54;43.04;101086.81;5048964;28;20432;-42
2022/04/25 02:09:43;;;;;;;3.92;2.03;;;;;;;19.53;43.36;101090.50;5048399;28;20387;-41
2022/04/25 02:12:10;;;;;;;5.05;2.28;;;;;;;19.52;42.95;101095.03;5048466;28;20414;-41
2022/04/25 02:14:37;;;;;;;6.60;2.20;;;;;;;19.52;43.29;101088.81;5047808;28;20127;-42
2022/04/25 02:17:04;;;;;;;4.20;2.60;;;;;;;19.52;43.08;101083.44;5047782;28;20451;-43
2022/04/25 02:19:38;;;;;;;3.45;1.90;;;;;;;19.51;43.47;101087.97;5050060;28;20076;-40
2022/04/25 02:22:06;;;;;;;;;;;;;;;19.52;43.62;101086.97;5050987;28;20045;-40
2022/04/25 02:24:33;;;;;;;4.43;1.95;;;;;;;19.53;43.37;101095.88;5047832;28;19963;-40
2022/04/25 02:27:03;;;;;;;4.90;2.45;;;;;;;19.52;43.23;101088.81;5049567;28;20045;-40
2022/04/25 02:29:32;;;;;;;4.63;2.20;;;;;;;19.52;43.42;101094.19;5048653;28;21558;-41
2022/04/25 02:32:00;;;;;;;4.15;2.63;;;;;;;19.49;43.42;101088.13;5046720;28;20128;-40
2022/04/25 02:34:28;;;;;;;4.00;2.30;;;;;;;19.51;43.02;101087.16;5047462;28;20048;-41
2022/04/25 02:36:55;;;;;;;5.47;2.30;;;;;;;19.51;43.18;101093.38;5046384;28;20056;-41
2022/04/25 02:39:23;;;;;;;3.65;2.35;;;;;;;19.50;43.28;101089.00;5047393;28;20071;-41
2022/04/25 02:41:50;;;;;;;4.28;2.13;;;;;;;19.52;43.40;101086.13;5048113;28;20052;-41
2022/04/25 02:44:20;;;;;;;3.13;2.17;;;;;;;19.51;43.40;101082.63;5049526;28;20055;-41
2022/04/25 02:46:46;;;;;;;3.80;2.00;;;;;;;19.49;43.22;101082.75;5049469;28;20049;-41
2022/04/25 02:49:13;;;;;;;3.80;2.22;;;;;;;19.50;43.25;101086.31;5047171;28;20045;-41
2022/04/25 02:51:40;;;;;;;3.72;2.10;;;;;;;19.49;43.86;101082.75;5047567;28;20488;-41
2022/04/25 02:54:06;;;;;;;3.47;2.53;;;;;;;19.49;43.27;101087.28;5046163;28;20051;-41
2022/04/25 02:56:33;;;;;;;2.72;1.73;;;;;;;19.48;43.12;101082.91;5047171;28;20411;-41
2022/04/25 02:58:59;;;;;;;5.53;2.22;;;;;;;19.48;43.67;101075.69;5049066;28;20045;-40
2022/04/25 03:01:26;;;;;;;3.33;2.13;;;;;;;19.49;44.08;101073.84;5048278;28;20315;-42
2022/04/25 03:03:52;;;;;;;4.50;2.30;;;;;;;19.47;44.14;101074.00;5051768;28;20191;-40
2022/04/25 03:06:19;;;;;;;4.65;2.40;;;;;;;19.47;44.29;101075.88;5051659;28;20057;-41
2022/04/25 03:08:46;;;;;;;3.03;1.90;;;;;;;19.47;43.95;101076.69;5050100;28;20049;-41
2022/04/25 03:11:12;;;;;;;4.03;2.67;;;;;;;19.47;43.84;101075.88;5049292;28;20049;-41
2022/04/25 03:13:39;;;;;;;7.00;2.40;;;;;;;19.48;43.23;101080.22;5052131;28;20052;-41
2022/04/25 03:16:06;;;;;;;4.43;2.03;;;;;;;19.47;43.59;101081.25;5048890;28;20043;-41
2022/04/25 03:18:33;;;;;;;3.60;2.13;;;;;;;19.46;44.08;101085.78;5049342;28;20424;-41
2022/04/25 03:21:00;;;;;;;4.30;2.20;;;;;;;19.46;44.13;101085.78;5049478;28;20059;-41
2022/04/25 03:23:27;;;;;;;3.25;2.30;;;;;;;19.47;44.11;101087.44;5049216;28;20698;-41
2022/04/25 03:25:54;;;;;;;4.78;2.30;;;;;;;19.46;43.59;101085.78;5051432;28;20344;-40
2022/04/25 03:28:21;;;;;;;2.50;2.10;;;;;;;19.46;43.88;101085.78;5048565;28;20045;-41
2022/04/25 03:30:48;;;;;;;3.33;2.17;;;;;;;19.45;43.96;101081.38;5048796;28;20128;-41
2022/04/25 03:33:15;;;;;;;4.15;2.55;;;;;;;19.45;43.94;101088.59;5051145;28;20076;-41
2022/04/25 03:35:46;;;;;;;2.78;2.13;;;;;;;19.44;44.19;101087.75;5048918;28;20049;-41
2022/04/25 03:38:17;;;;;;;2.95;1.90;;;;;;;19.45;43.71;101091.28;5047500;28;20123;-41
2022/04/25 03:40:44;;;;;;;4.72;2.30;;;;;;;19.43;43.84;101088.78;5048745;28;20037;-40
2022/04/25 03:43:11;;;;;;;3.30;2.08;;;;;;;19.42;44.50;101089.78;5051008;28;20083;-41
2022/04/25 03:45:40;;;;;;;3.40;2.10;;;;;;;19.42;43.89;101089.78;5048613;28;20049;-42
2022/04/25 03:48:07;;;;;;;3.72;2.47;;;;;;;19.41;43.71;101089.91;5048242;28;20347;-41
2022/04/25 03:50:34;;;;;;;3.33;2.20;;;;;;;19.41;44.06;101090.75;5048370;28;20111;-41
2022/04/25 03:53:06;;;;;;;3.28;2.00;;;;;;;19.41;44.19;101095.28;5049922;28;20080;-41
2022/04/25 03:58:19;;;;;;;3.95;2.47;;;;;;;19.41;44.30;101092.59;5050699;28;20562;-41
2022/04/25 04:00:45;;;;;;;8.52;2.45;;;;;;;19.40;43.98;101089.06;5052825;28;20045;-40
2022/04/25 04:03:14;;;;;;;5.05;2.47;;;;;;;19.40;44.07;101090.94;5052309;28;20049;-42
2022/04/25 04:05:42;;;;;;;4.57;2.38;;;;;;;19.38;43.91;101092.94;5048226;28;20041;-41
2022/04/25 04:08:09;;;;;;;9.55;5.60;;;;;;;19.39;44.01;101094.63;5048321;28;20171;-41
2022/04/25 04:10:36;;;;;;;26.98;14.63;;;;;;;19.37;43.81;101091.22;5052170;28;20124;-40
2022/04/25 04:13:05;;;;;;;27.70;15.93;;;;;;;19.36;43.30;101095.75;5054250;28;20379;-41
2022/04/25 04:15:32;;;;;;;32.30;17.80;;;;;;;19.37;43.88;101094.75;5049991;28;20053;-41
2022/04/25 04:17:58;;;;;;;33.03;19.17;;;;;;;19.37;43.98;101107.34;5047834;28;20040;-40
2022/04/25 04:20:25;;;;;;;32.28;18.40;;;;;;;19.35;43.63;101110.22;5047813;28;20435;-40
2022/04/25 04:22:51;;;;;;;33.33;19.25;;;;;;;19.36;43.45;101108.38;5053250;28;20120;-41
2022/04/25 04:25:18;;;;;;;35.55;19.30;;;;;;;19.33;43.95;101105.97;5052790;28;20059;-40
2022/04/25 04:27:45;;;;;;;37.42;20.90;;;;;;;19.32;43.65;101120.44;5053653;28;20053;-40
2022/04/25 04:30:12;;;;;;;38.33;20.83;;;;;;;19.30;43.34;101114.38;5050763;28;20510;-41
2022/04/25 04:32:41;;;;;;;40.17;22.45;;;;;;;19.29;43.59;101126.94;5050144;28;20723;-40
2022/04/25 04:35:09;;;;;;;38.83;22.40;;;;;;;19.28;43.74;101124.41;5049680;28;20049;-40
2022/04/25 04:37:38;;;;;;;37.83;21.73;;;;;;;19.27;43.69;101131.66;5052174;28;20047;-41
2022/04/25 04:42:52;;;;;;;40.92;23.33;;;;;;;19.26;43.24;101138.03;5049964;28;20438;-40
2022/04/25 04:45:18;;;;;;;42.40;23.83;;;;;;;19.24;43.90;101138.16;5052020;28;20045;-42
2022/04/25 04:47:45;;;;;;;42.70;24.05;;;;;;;19.24;44.09;101148.06;5051758;28;20167;-40
2022/04/25 04:50:16;;;;;;;44.03;24.88;;;;;;;19.23;43.59;101144.53;5051936;28;20445;-41
2022/04/25 04:53:03;;;;;;;43.38;24.48;;;;;;;19.22;43.71;101150.94;5048938;28;20381;-41
2022/04/25 04:55:31;;;;;;;41.20;22.65;;;;;;;19.23;43.25;101157.97;5052723;28;20049;-40
2022/04/25 04:57:58;;;;;;;41.03;24.60;;;;;;;19.22;43.41;101155.47;5052459;28;20167;-40
2022/04/25 05:00:24;;;;;;;36.22;21.95;;;;;;;19.22;43.54;101164.38;5050843;28;20040;-43
2022/04/25 05:02:51;;;;;;;40.90;23.27;;;;;;;19.22;43.21;101155.47;5051088;28;20063;-41
2022/04/25 05:05:19;;;;;;;39.47;23.35;;;;;;;19.21;43.35;101154.59;5043255;28;20049;-40
2022/04/25 05:07:45;;;;;;;40.60;23.80;;;;;;;19.20;43.02;101160.13;5049715;28;20063;-40
2022/04/25 05:10:12;;;;;;;42.55;23.60;;;;;;;19.21;43.54;101164.50;5053248;28;20099;-40
2022/04/25 05:12:50;;;;;;;38.33;22.10;;;;;;;19.19;43.66;101158.44;5053251;28;20128;-43
2022/04/25 05:15:17;;;;;;;39.28;23.15;;;;;;;19.19;43.07;101170.03;5049809;28;20083;-42
2022/04/25 05:17:48;;;;;;;41.58;22.98;;;;;;;19.19;42.76;101174.56;5053023;28;20056;-42
2022/04/25 05:20:16;;;;;;;37.40;21.67;;;;;;;19.19;43.34;101172.72;5050456;28;20036;-42
2022/04/25 05:22:44;;;;;;;41.17;23.80;;;;;;;19.19;42.94;101171.88;5051058;28;20041;-44
2022/04/25 05:25:16;;;;;;;38.35;22.70;;;;;;;19.19;43.21;101177.25;5045906;28;20057;-44
2022/04/25 05:28:01;;;;;;;38.25;22.58;;;;;;;19.16;43.38;101172.19;5051267;28;20129;-42
2022/04/25 05:30:28;;;;;;;37.80;21.95;;;;;;;19.18;43.32;101186.31;5051427;28;20135;-45
2022/04/25 05:32:58;;;;;;;38.17;21.88;;;;;;;19.17;43.08;101185.44;5047375;28;20109;-41
2022/04/25 05:35:27;;;;;;;37.22;22.02;;;;;;;19.16;42.97;101185.63;5048127;28;20040;-42
2022/04/25 05:37:55;;;;;;;38.95;22.08;;;;;;;19.17;43.36;101190.81;5050752;28;20045;-41
2022/04/25 05:40:22;;;;;;;40.42;22.48;;;;;;;19.15;43.10;101187.47;5045270;28;20045;-41
2022/04/25 05:42:50;;;;;;;35.20;21.15;;;;;;;19.14;42.82;101201.91;5052630;28;20040;-48
2022/04/25 05:45:20;;;;;;;34.22;20.80;;;;;;;19.13;43.25;101202.03;5048833;28;20139;-41
2022/04/25 05:47:47;;;;;;;35.65;20.83;;;;;;;19.13;43.44;101197.50;5048397;28;20141;-41
2022/04/25 05:53:01;;;;;;;33.75;19.75;;;;;;;19.11;42.91;101209.41;5050930;28;20051;-42
2022/04/25 05:55:28;;;;;;;35.80;19.50;;;;;;;19.08;43.50;101207.88;5050939;28;20045;-44
2022/04/25 05:57:55;;;;;;;33.95;19.13;;;;;;;19.07;43.19;101208.88;5051798;28;20072;-44
2022/04/25 06:00:26;;;;;;;31.83;18.98;;;;;;;19.08;43.59;101209.72;5052752;28;20103;-43
2022/04/25 06:02:52;;;;;;;29.38;17.85;;;;;;;19.06;43.49;101215.25;5047365;28;20344;-43
2022/04/25 06:05:19;;;;;;;30.25;18.23;;;;;;;19.05;43.04;101213.53;5051229;28;20132;-44
2022/04/25 06:07:47;;;;;;;27.95;16.90;;;;;;;19.04;43.10;101217.22;5049304;28;20049;-42
2022/04/25 06:10:15;;;;;;;31.50;17.10;;;;;;;19.03;43.44;101212.84;5050153;28;20047;-42
2022/04/25 06:12:44;;;;;;;27.83;17.33;;;;;;;19.03;43.27;101214.69;5050595;28;20137;-41
2022/04/25 06:15:11;;;;;;;27.05;17.25;;;;;;;19.03;43.17;101222.75;5050229;28;20526;-45
2022/04/25 06:17:38;;;;;;;28.35;16.52;;;;;;;19.02;43.38;101221.09;5046189;28;20427;-42
2022/04/25 06:20:06;;;;;;;28.67;16.80;;;;;;;18.99;43.50;101223.06;5051042;28;20095;-45
2022/04/25 06:22:33;;;;;;;28.90;17.17;;;;;;;18.98;43.18;101231.28;5046594;28;20036;-42
2022/04/25 06:25:00;;;;;;;25.02;16.08;;;;;;;18.99;43.46;101232.97;5048259;28;20131;-44
2022/04/25 06:27:26;;;;;;;24.50;14.85;;;;;;;18.98;43.37;101232.13;5046470;28;20037;-43
2022/04/25 06:29:53;;;;;;;25.38;14.50;;;;;;;18.98;43.38;101232.13;5048761;28;20068;-44
2022/04/25 06:32:20;;;;;;;22.73;13.93;;;;;;;18.97;43.17;101238.50;5047271;28;20076;-45
2022/04/25 06:34:47;;;;;;;33.80;15.40;;;;;;;18.98;43.39;101239.34;5047307;28;20067;-44
2022/04/25 06:37:13;;;;;;;33.17;15.73;;;;;;;18.97;43.54;101237.63;5048162;28;20484;-44
2022/04/25 06:39:40;;;;;;;34.60;14.80;;;;;;;18.96;43.49;101235.94;5047280;28;20048;-44
2022/04/25 06:42:08;;;;;;;33.95;15.85;;;;;;;18.95;43.43;101242.31;5051716;28;20084;-45
2022/04/25 06:44:35;;;;;;;29.83;15.27;;;;;;;18.94;43.96;101246.84;5049610;28;20059;-44
2022/04/25 06:47:02;;;;;;;31.67;15.32;;;;;;;18.96;43.37;101244.00;5051225;28;20053;-43
2022/04/25 06:49:29;;;;;;;32.55;14.85;;;;;;;18.93;43.49;101242.44;5050390;28;20040;-43
2022/04/25 06:52:00;;;;;;;32.40;14.38;;;;;;;18.93;43.84;101246.97;5050306;28;20088;-42
2022/04/25 06:54:29;;;;;;;27.52;14.07;;;;;;;18.93;43.20;101249.66;5050145;28;20076;-44
2022/04/25 06:56:57;;;;;;;26.05;13.32;;;;;;;18.93;43.35;101252.34;5048377;28;20057;-44
2022/04/25 06:59:24;;;;;;;28.75;13.30;;;;;;;18.92;43.37;101256.88;5049040;28;20049;-44
2022/04/25 07:01:51;;;;;;;23.63;13.02;;;;;;;18.93;43.65;101260.41;5046968;28;20124;-44
2022/04/25 07:04:18;;;;;;;25.42;13.57;;;;;;;18.91;43.50;101257.03;5048366;28;20053;-43
2022/04/25 07:06:45;;;;;;;26.48;12.60;;;;;;;18.90;43.38;101258.03;5045000;28;20428;-48
2022/04/25 07:09:17;;;;;;;22.83;12.20;;;;;;;18.89;43.38;101254.50;5048171;28;20044;-44
2022/04/25 07:11:45;;;;;;;22.05;11.90;;;;;;;18.91;43.48;101248.97;5046189;28;20099;-45
2022/04/25 07:14:14;;;;;;;24.50;12.10;;;;;;;18.90;43.50;101256.19;5048173;28;20052;-45
2022/04/25 07:16:44;;;;;;;20.40;11.88;;;;;;;18.89;43.12;101259.00;5048248;28;20164;-44
2022/04/25 07:19:16;;;;;;;27.30;12.00;;;;;;;18.89;43.57;101253.66;5048188;28;20055;-45
2022/04/25 07:30:05;;;;;;;22.92;10.35;;;;;;;18.89;43.34;101270.59;5051301;28;20096;-44
2022/04/25 07:32:32;;;;;;;21.70;10.32;;;;;;;18.88;43.21;101268.91;5049186;28;20504;-45
2022/04/25 07:35:02;;;;;;;20.15;9.88;;;;;;;18.88;43.51;101270.75;5052894;28;20045;-43
2022/04/25 07:37:29;;;;;;;17.80;9.60;;;;;;;18.87;43.54;101269.91;5050945;28;20063;-43
2022/04/25 07:39:56;;;;;;;16.88;9.40;;;;;;;18.86;43.80;101276.28;5054710;28;20051;-44
2022/04/25 07:42:22;;;;;;;17.17;9.63;;;;;;;18.86;43.91;101278.13;5051417;28;20072;-42
2022/04/25 07:44:49;;;;;;;16.52;8.73;;;;;;;18.87;43.20;101287.88;5047976;28;20049;-44
2022/04/25 07:47:16;;;;;;;16.15;8.38;;;;;;;18.86;43.62;101286.19;5050252;28;20056;-43
2022/04/25 07:49:44;;;;;;;18.65;9.60;;;;;;;18.86;43.29;101276.28;5053443;28;20127;-43
2022/04/25 07:52:13;;;;;;;18.65;8.90;;;;;;;18.87;43.35;101285.19;5049632;28;20056;-43
2022/04/25 07:54:40;;;;;;;16.40;8.77;;;;;;;18.85;43.29;101282.63;5050259;28;20432;-43
2022/04/25 07:57:06;;;;;;;14.88;7.82;;;;;;;18.87;43.73;101277.13;5052645;28;20045;-44
2022/04/25 07:59:34;;;;;;;15.27;8.25;;;;;;;18.87;43.69;101293.25;5050315;28;20371;-43
2022/04/25 08:02:02;;;;;;;15.18;8.13;;;;;;;18.88;43.51;101281.50;5050863;28;20111;-44
2022/04/25 08:04:29;;;;;;;17.27;8.50;;;;;;;18.88;43.44;101285.03;5051242;28;20679;-41
2022/04/25 08:06:56;;;;;;;15.30;7.68;;;;;;;18.88;43.71;101281.50;5046446;28;20059;-41
2022/04/25 08:09:23;;;;;;;13.52;7.95;;;;;;;18.88;43.44;101279.66;5050056;28;20063;-41
2022/04/25 08:17:56;;;;;;;12.57;7.32;;;;;;;18.90;43.79;101283.06;5049576;28;20132;-41
2022/04/25 08:20:06;;;;;;;10.73;6.55;;;;;;;18.93;43.33;101281.91;5050790;28;20608;-42
2022/04/25 08:22:33;;;;;;;9.85;5.63;;;;;;;18.93;43.05;101285.44;5049313;28;20053;-40
2022/04/25 08:25:03;;;;;;;13.07;6.85;;;;;;;18.94;43.13;101288.97;5049866;28;20053;-42
2022/04/25 08:27:29;;;;;;;11.65;6.53;;;;;;;18.95;43.07;101290.66;5052455;28;20132;-40
2022/04/25 08:29:57;;;;;;;9.90;6.45;;;;;;;18.95;43.42;101294.19;5052805;28;20355;-42
2022/04/25 08:32:23;;;;;;;12.57;6.70;;;;;;;18.94;43.35;101292.50;5051005;28;20072;-42
2022/04/25 08:34:50;;;;;;;12.85;6.32;;;;;;;18.95;42.80;101285.28;5048954;28;20119;-41
2022/04/25 08:37:16;;;;;;;10.93;6.28;;;;;;;18.96;43.06;101284.28;5052060;28;20393;-41
2022/04/25 08:39:43;;;;;;;9.88;5.75;;;;;;;18.96;43.40;101292.34;5050769;28;20055;-43
2022/04/25 08:42:09;;;;;;;9.65;5.60;;;;;;;18.96;43.52;101293.19;5050983;28;20132;-40
2022/04/25 08:44:58;;;;;;;8.85;5.32;;;;;;;18.96;43.17;101287.81;5048405;28;20040;-40
2022/04/25 08:47:32;;;;;;;8.75;5.40;;;;;;;18.97;43.36;101302.97;5050140;28;20048;-41
2022/04/25 08:49:59;;;;;;;11.85;5.53;;;;;;;18.98;43.25;101298.44;5049646;28;20128;-42
2022/04/25 08:52:28;;;;;;;9.10;5.72;;;;;;;18.97;43.35;101307.47;5046945;28;20049;-40
2022/04/25 08:54:58;;;;;;;9.93;5.32;;;;;;;18.96;43.41;101317.38;5049236;28;20123;-40
2022/04/25 08:57:27;;;;;;;8.15;5.18;;;;;;;18.96;43.37;101330.81;5051935;28;20492;-41
2022/04/25 08:59:55;;;;;;;8.43;5.10;;;;;;;18.96;43.68;101335.34;5052602;28;20140;-41
2022/04/25 09:02:22;;;;;;;8.77;5.10;;;;;;;18.96;43.41;101335.34;5049878;28;20144;-40
2022/04/25 09:04:49;;;;;;;8.75;5.35;;;;;;;18.95;42.67;101341.72;5050464;28;20041;-41
2022/04/25 09:07:17;;;;;;;8.93;5.50;;;;;;;18.95;42.78;101341.72;5050785;28;20036;-40
2022/04/25 09:09:43;;;;;;;7.50;4.63;;;;;;;18.95;43.33;101341.72;5049230;28;20072;-40
2022/04/25 09:12:13;;;;;;;8.32;5.40;;;;;;;18.93;43.26;101344.53;5051399;28;20156;-41
2022/04/25 09:14:43;;;;;;;7.63;4.70;;;;;;;18.92;42.79;101350.06;5055531;28;20124;-41
2022/04/25 09:17:10;;;;;;;6.97;4.40;;;;;;;18.93;43.26;101351.72;5051167;28;20140;-41
2022/04/25 09:19:38;;;;;;;8.23;4.93;;;;;;;18.91;43.42;101348.38;5050907;28;20411;-41
2022/04/25 09:22:06;;;;;;;11.85;4.82;;;;;;;18.91;43.37;101354.59;5051871;28;20127;-42
2022/04/25 09:24:35;;;;;;;7.90;4.68;;;;;;;18.91;43.21;101359.97;5050986;28;20041;-42
2022/04/25 09:27:07;;;;;;;7.00;4.43;;;;;;;18.89;43.54;101361.91;5050865;28;20055;-41
2022/04/25 09:29:36;;;;;;;8.10;4.40;;;;;;;18.90;43.33;101369.00;5052748;28;20132;-42
2022/04/25 09:32:04;;;;;;;9.50;4.75;;;;;;;18.89;43.44;101367.28;5052870;28;20128;-42
2022/04/25 09:37:17;;;;;;;7.38;4.82;;;;;;;18.88;43.33;101365.63;5050769;28;20072;-44
2022/04/25 09:39:44;;;;;;;6.93;4.47;;;;;;;18.87;43.27;101363.09;5050775;28;20068;-43
2022/04/25 09:42:11;;;;;;;8.52;4.13;;;;;;;18.86;43.70;101366.78;5050480;28;20047;-45
2022/04/25 09:44:58;;;;;;;6.70;4.18;;;;;;;18.85;43.45;101370.44;5051910;28;20049;-43
2022/04/25 09:47:42;;;;;;;8.65;5.30;;;;;;;18.85;43.53;101365.06;5050449;28;20044;-45
2022/04/25 09:50:11;;;;;;;11.05;5.75;;;;;;;18.85;43.65;101365.06;5048660;28;20041;-43
2022/04/25 09:53:00;;;;;;;7.47;3.88;;;;;;;18.85;43.20;101373.09;5037054;28;20428;-46
2022/04/25 09:55:30;;;;;;;7.40;4.47;;;;;;;18.85;43.35;101375.78;5051259;28;20123;-43
2022/04/25 09:57:57;;;;;;;6.57;4.00;;;;;;;18.84;43.49;101380.31;5050084;28;20059;-41
2022/04/25 10:00:30;;;;;;;5.15;3.70;;;;;;;18.84;43.61;101380.31;5047853;28;20049;-43
2022/04/25 10:02:57;;;;;;;;;;;;;;;18.84;43.32;101380.31;5050276;28;20045;-44
2022/04/25 10:05:43;;;;;;;8.05;4.00;;;;;;;18.85;43.49;101382.00;5047516;28;19916;-45
2022/04/25 10:08:12;;;;;;;6.68;4.00;;;;;;;18.84;43.08;101393.75;5051943;28;20049;-44
2022/04/25 10:10:48;;;;;;;6.22;4.32;;;;;;;18.83;43.40;101377.81;5051824;28;20156;-46
2022/04/25 10:13:17;;;;;;;6.70;4.03;;;;;;;18.82;43.50;101387.69;5048135;28;20425;-43
2022/04/25 10:15:45;;;;;;;6.25;4.05;;;;;;;18.82;43.10;101394.91;5050874;28;20087;-45
2022/04/25 10:18:13;;;;;;;6.82;4.03;;;;;;;18.82;43.72;101397.59;5047209;28;20063;-42
2022/04/25 10:20:42;;;;;;;7.72;4.22;;;;;;;18.81;43.54;101395.88;5049144;28;20049;-44
2022/04/25 10:23:11;;;;;;;5.60;3.95;;;;;;;18.80;43.54;101397.72;5050538;28;20119;-43
2022/04/25 10:25:40;;;;;;;5.63;3.78;;;;;;;18.82;43.17;101405.66;5049702;28;20065;-44
2022/04/25 10:28:13;;;;;;;6.47;4.13;;;;;;;18.81;43.47;101402.09;5051519;28;20380;-45
2022/04/25 10:30:46;;;;;;;8.00;4.32;;;;;;;18.83;43.59;101408.19;5046035;28;20095;-42
2022/04/25 10:33:18;;;;;;;6.47;4.22;;;;;;;18.84;43.62;101409.03;5049525;28;20239;-41
2022/04/25 10:35:50;;;;;;;8.75;4.75;;;;;;;18.85;43.35;101406.19;5050503;28;20083;-44
2022/04/25 10:38:48;;;;;;;7.55;4.00;;;;;;;18.85;43.41;101406.19;5049975;28;20041;-43
2022/04/25 10:44:16;;;;;;;6.10;3.55;;;;;;;18.89;43.43;101412.13;5049361;28;20272;-42
2022/04/25 10:47:11;;;;;;;5.93;3.53;;;;;;;18.89;43.15;101414.81;5051602;28;20397;-41
2022/04/25 10:49:46;;;;;;;5.63;3.90;;;;;;;18.92;43.05;101411.84;5047202;28;20116;-41
2022/04/25 10:52:37;;;;;;;6.32;3.53;;;;;;;18.93;43.21;101417.03;5050446;28;20144;-41
2022/04/25 10:55:09;;;;;;;6.05;3.72;;;;;;;18.96;42.95;101413.25;5049691;28;20136;-41
2022/04/25 10:57:36;;;;;;;7.13;3.60;;;;;;;19.00;43.73;101409.25;5048803;28;20052;-40
2022/04/25 11:00:40;;;;;;;7.57;4.00;;;;;;;19.04;43.16;101421.41;5050489;28;20051;-41
2022/04/25 11:03:19;;;;;;;7.38;4.18;;;;;;;19.08;42.86;101416.59;5026992;28;20076;-41
2022/04/25 11:05:54;;;;;;;7.82;3.78;;;;;;;19.09;42.78;101416.44;5052911;28;20044;-41
2022/04/25 11:08:21;;;;;;;7.05;4.40;;;;;;;19.11;42.70;101432.44;5052332;28;20134;-42
2022/04/25 11:11:00;;;;;;;6.97;5.00;;;;;;;19.11;42.58;101425.22;5053720;28;20044;-42
2022/04/25 11:13:33;;;;;;;10.60;5.35;;;;;;;19.12;42.57;101434.13;5054990;28;20127;-42
2022/04/25 11:16:24;;;;;;;6.80;4.05;;;;;;;19.11;42.62;101440.50;5055165;28;20369;-41
2022/04/25 11:19:11;;;;;;;6.85;4.38;;;;;;;19.10;42.76;101438.81;5054723;28;20044;-41
2022/04/25 11:21:47;;;;;;;9.45;4.38;;;;;;;19.10;43.02;101446.88;5053439;28;20451;-41
2022/04/25 11:24:30;;;;;;;8.65;4.97;;;;;;;19.08;42.86;101440.78;5052751;28;20044;-41
2022/04/25 11:26:59;;;;;;;10.30;4.75;;;;;;;19.08;42.72;101447.00;5047747;28;20052;-41
2022/04/25 11:29:25;;;;;;;8.05;4.85;;;;;;;19.08;42.53;101441.63;5055897;28;20071;-41
2022/04/25 11:32:23;;;;;;;6.88;4.47;;;;;;;19.06;42.59;101442.78;5054449;28;20057;-41
2022/04/25 11:34:50;;;;;;;8.07;4.60;;;;;;;19.06;42.93;101440.09;5048822;28;20081;-41
2022/04/25 11:37:18;;;;;;;8.90;4.68;;;;;;;19.06;42.74;101446.31;5052122;28;20049;-41
2022/04/25 11:39:58;;;;;;;7.47;4.78;;;;;;;19.05;42.93;101444.59;5053222;28;20053;-41
2022/04/25 11:42:27;;;;;;;10.15;4.90;;;;;;;19.07;42.52;101439.09;5054727;28;20041;-42
2022/04/25 11:44:55;;;;;;;7.63;4.55;;;;;;;19.06;42.87;101449.00;5053945;28;20053;-42
2022/04/25 11:47:22;;;;;;;7.03;4.68;;;;;;;19.05;43.00;101449.13;5053393;28;20183;-41
2022/04/25 11:50:12;;;;;;;9.07;5.13;;;;;;;19.04;43.15;101450.97;5055874;28;20041;-41
2022/04/25 11:52:48;;;;;;;7.18;4.60;;;;;;;19.03;43.01;101457.34;5049162;28;20374;-41
2022/04/25 11:55:30;;;;;;;6.97;5.03;;;;;;;19.01;42.75;101459.31;5055999;28;20676;-39
2022/04/25 11:57:57;;;;;;;8.77;4.75;;;;;;;19.02;42.91;101458.34;5052186;28;20053;-41
2022/04/25 12:00:24;;;;;;;6.75;4.97;;;;;;;19.00;42.76;101465.69;5035659;28;20061;-42